sensor_id;sensor_type;location;lat;lon;timestamp;P1;durP1;ratioP1;P2;durP2;ratioP2
55633;SDS011;41504;53.162;6.788;2023-02-20T00:00:47;11.93;;;6.40;;
55633;SDS011;41504;53.162;6.788;2023-02-20T00:03:15;10.85;;;6.18;;
55633;SDS011;41504;53.162;6.788;2023-02-20T00:05:44;10.35;;;6.00;;
55633;SDS011;41504;53.162;6.788;2023-02-20T00:08:10;13.38;;;7.05;;
55633;SDS011;41504;53.162;6.788;2023-02-20T00:10:35;13.07;;;6.90;;
55633;SDS011;41504;53.162;6.788;2023-02-20T00:13:01;11.98;;;6.10;;
55633;SDS011;41504;53.162;6.788;2023-02-20T00:15:27;13.80;;;7.57;;
55633;SDS011;41504;53.162;6.788;2023-02-20T00:17:53;11.80;;;6.97;;
55633;SDS011;41504;53.162;6.788;2023-02-20T00:20:19;12.50;;;7.10;;
55633;SDS011;41504;53.162;6.788;2023-02-20T00:22:47;13.18;;;8.02;;
55633;SDS011;41504;53.162;6.788;2023-02-20T00:25:14;12.63;;;7.50;;
55633;SDS011;41504;53.162;6.788;2023-02-20T00:27:41;13.35;;;8.15;;
55633;SDS011;41504;53.162;6.788;2023-02-20T00:30:15;15.48;;;8.05;;
55633;SDS011;41504;53.162;6.788;2023-02-20T00:32:46;16.30;;;8.75;;
55633;SDS011;41504;53.162;6.788;2023-02-20T00:35:13;14.52;;;8.55;;
55633;SDS011;41504;53.162;6.788;2023-02-20T00:37:40;13.70;;;7.97;;
55633;SDS011;41504;53.162;6.788;2023-02-20T00:40:06;15.30;;;8.43;;
55633;SDS011;41504;53.162;6.788;2023-02-20T00:42:32;12.15;;;8.00;;
55633;SDS011;41504;53.162;6.788;2023-02-20T00:44:58;14.60;;;9.20;;
55633;SDS011;41504;53.162;6.788;2023-02-20T00:47:24;13.05;;;8.10;;
55633;SDS011;41504;53.162;6.788;2023-02-20T00:49:50;13.73;;;8.57;;
55633;SDS011;41504;53.162;6.788;2023-02-20T00:52:16;13.18;;;7.75;;
55633;SDS011;41504;53.162;6.788;2023-02-20T00:54:44;14.13;;;7.85;;
55633;SDS011;41504;53.162;6.788;2023-02-20T00:57:10;12.82;;;7.55;;
55633;SDS011;41504;53.162;6.788;2023-02-20T00:59:36;12.73;;;7.95;;
55633;SDS011;41504;53.162;6.788;2023-02-20T01:02:01;14.07;;;7.82;;
55633;SDS011;41504;53.162;6.788;2023-02-20T01:04:28;13.30;;;8.18;;
55633;SDS011;41504;53.162;6.788;2023-02-20T01:06:53;12.13;;;7.55;;
55633;SDS011;41504;53.162;6.788;2023-02-20T01:09:19;16.23;;;7.70;;
55633;SDS011;41504;53.162;6.788;2023-02-20T01:11:45;13.85;;;8.02;;
55633;SDS011;41504;53.162;6.788;2023-02-20T01:14:11;14.02;;;8.60;;
55633;SDS011;41504;53.162;6.788;2023-02-20T01:16:42;13.35;;;8.98;;
55633;SDS011;41504;53.162;6.788;2023-02-20T01:19:16;13.93;;;9.20;;
55633;SDS011;41504;53.162;6.788;2023-02-20T01:21:49;14.13;;;9.00;;
55633;SDS011;41504;53.162;6.788;2023-02-20T01:24:16;13.85;;;9.48;;
55633;SDS011;41504;53.162;6.788;2023-02-20T01:26:43;15.48;;;9.20;;
55633;SDS011;41504;53.162;6.788;2023-02-20T01:29:10;14.45;;;9.35;;
55633;SDS011;41504;53.162;6.788;2023-02-20T01:31:36;15.70;;;9.82;;
55633;SDS011;41504;53.162;6.788;2023-02-20T01:34:03;13.50;;;9.10;;
55633;SDS011;41504;53.162;6.788;2023-02-20T01:36:29;14.77;;;8.95;;
55633;SDS011;41504;53.162;6.788;2023-02-20T01:38:55;16.17;;;9.50;;
55633;SDS011;41504;53.162;6.788;2023-02-20T01:41:21;14.73;;;10.02;;
55633;SDS011;41504;53.162;6.788;2023-02-20T01:43:48;16.50;;;10.45;;
55633;SDS011;41504;53.162;6.788;2023-02-20T01:49:02;16.23;;;11.13;;
55633;SDS011;41504;53.162;6.788;2023-02-20T01:51:31;15.98;;;9.80;;
55633;SDS011;41504;53.162;6.788;2023-02-20T01:54:01;16.88;;;10.07;;
55633;SDS011;41504;53.162;6.788;2023-02-20T01:56:28;12.98;;;9.82;;
55633;SDS011;41504;53.162;6.788;2023-02-20T01:58:54;15.52;;;10.80;;
55633;SDS011;41504;53.162;6.788;2023-02-20T02:01:20;17.00;;;10.23;;
55633;SDS011;41504;53.162;6.788;2023-02-20T02:03:49;16.10;;;10.30;;
55633;SDS011;41504;53.162;6.788;2023-02-20T02:06:20;15.20;;;10.25;;
55633;SDS011;41504;53.162;6.788;2023-02-20T02:08:46;18.13;;;10.18;;
55633;SDS011;41504;53.162;6.788;2023-02-20T02:11:16;13.85;;;9.38;;
55633;SDS011;41504;53.162;6.788;2023-02-20T02:13:44;15.00;;;9.70;;
55633;SDS011;41504;53.162;6.788;2023-02-20T02:19:06;15.60;;;10.18;;
55633;SDS011;41504;53.162;6.788;2023-02-20T02:22:17;15.52;;;9.85;;
55633;SDS011;41504;53.162;6.788;2023-02-20T02:25:17;16.48;;;9.60;;
55633;SDS011;41504;53.162;6.788;2023-02-20T02:28:22;15.27;;;9.10;;
55633;SDS011;41504;53.162;6.788;2023-02-20T02:39:31;17.67;;;9.75;;
55633;SDS011;41504;53.162;6.788;2023-02-20T02:42:11;14.40;;;9.60;;
55633;SDS011;41504;53.162;6.788;2023-02-20T02:47:54;15.25;;;9.88;;
55633;SDS011;41504;53.162;6.788;2023-02-20T02:50:45;15.63;;;9.20;;
55633;SDS011;41504;53.162;6.788;2023-02-20T02:53:16;16.05;;;9.73;;
55633;SDS011;41504;53.162;6.788;2023-02-20T02:55:42;16.45;;;9.68;;
55633;SDS011;41504;53.162;6.788;2023-02-20T02:58:07;16.67;;;10.00;;
55633;SDS011;41504;53.162;6.788;2023-02-20T03:05:55;20.33;;;10.68;;
55633;SDS011;41504;53.162;6.788;2023-02-20T03:19:58;15.80;;;10.32;;
55633;SDS011;41504;53.162;6.788;2023-02-20T03:22:33;19.23;;;10.00;;
55633;SDS011;41504;53.162;6.788;2023-02-20T03:25:08;17.63;;;10.13;;
55633;SDS011;41504;53.162;6.788;2023-02-20T03:30:20;17.70;;;10.93;;
55633;SDS011;41504;53.162;6.788;2023-02-20T03:32:48;20.58;;;11.23;;
55633;SDS011;41504;53.162;6.788;2023-02-20T03:35:36;19.50;;;10.85;;
55633;SDS011;41504;53.162;6.788;2023-02-20T03:38:22;20.80;;;11.52;;
55633;SDS011;41504;53.162;6.788;2023-02-20T03:41:08;19.02;;;10.32;;
55633;SDS011;41504;53.162;6.788;2023-02-20T03:43:56;22.40;;;11.95;;
55633;SDS011;41504;53.162;6.788;2023-02-20T03:46:24;22.85;;;10.65;;
55633;SDS011;41504;53.162;6.788;2023-02-20T03:48:57;17.05;;;10.40;;
55633;SDS011;41504;53.162;6.788;2023-02-20T03:51:27;21.25;;;10.88;;
55633;SDS011;41504;53.162;6.788;2023-02-20T03:53:53;24.83;;;11.05;;
55633;SDS011;41504;53.162;6.788;2023-02-20T03:56:20;25.55;;;11.68;;
55633;SDS011;41504;53.162;6.788;2023-02-20T03:58:54;21.60;;;10.85;;
55633;SDS011;41504;53.162;6.788;2023-02-20T04:01:26;24.05;;;11.52;;
55633;SDS011;41504;53.162;6.788;2023-02-20T04:03:53;22.85;;;11.65;;
55633;SDS011;41504;53.162;6.788;2023-02-20T04:06:24;22.08;;;11.70;;
55633;SDS011;41504;53.162;6.788;2023-02-20T04:09:13;25.27;;;12.32;;
55633;SDS011;41504;53.162;6.788;2023-02-20T04:11:54;28.50;;;12.07;;
55633;SDS011;41504;53.162;6.788;2023-02-20T04:14:25;26.67;;;13.25;;
55633;SDS011;41504;53.162;6.788;2023-02-20T04:16:55;25.00;;;12.63;;
55633;SDS011;41504;53.162;6.788;2023-02-20T04:19:24;25.42;;;13.48;;
55633;SDS011;41504;53.162;6.788;2023-02-20T04:21:51;22.15;;;12.45;;
55633;SDS011;41504;53.162;6.788;2023-02-20T04:24:22;24.17;;;12.88;;
55633;SDS011;41504;53.162;6.788;2023-02-20T04:27:05;25.55;;;12.43;;
55633;SDS011;41504;53.162;6.788;2023-02-20T04:29:32;27.90;;;13.00;;
55633;SDS011;41504;53.162;6.788;2023-02-20T04:31:58;25.02;;;12.32;;
55633;SDS011;41504;53.162;6.788;2023-02-20T04:34:24;25.42;;;12.98;;
55633;SDS011;41504;53.162;6.788;2023-02-20T04:36:51;24.45;;;13.00;;
55633;SDS011;41504;53.162;6.788;2023-02-20T04:39:29;24.73;;;13.63;;
55633;SDS011;41504;53.162;6.788;2023-02-20T04:41:54;27.50;;;13.57;;
55633;SDS011;41504;53.162;6.788;2023-02-20T04:44:20;24.08;;;13.43;;
55633;SDS011;41504;53.162;6.788;2023-02-20T04:47:10;27.55;;;14.05;;
55633;SDS011;41504;53.162;6.788;2023-02-20T04:49:38;26.45;;;13.65;;
55633;SDS011;41504;53.162;6.788;2023-02-20T04:52:04;30.80;;;14.32;;
55633;SDS011;41504;53.162;6.788;2023-02-20T04:54:30;24.98;;;13.43;;
55633;SDS011;41504;53.162;6.788;2023-02-20T04:56:55;27.50;;;14.18;;
55633;SDS011;41504;53.162;6.788;2023-02-20T04:59:21;23.65;;;13.73;;
55633;SDS011;41504;53.162;6.788;2023-02-20T05:01:47;27.67;;;13.45;;
55633;SDS011;41504;53.162;6.788;2023-02-20T05:04:16;24.67;;;14.52;;
55633;SDS011;41504;53.162;6.788;2023-02-20T05:06:47;28.25;;;14.82;;
55633;SDS011;41504;53.162;6.788;2023-02-20T05:09:14;27.60;;;14.60;;
55633;SDS011;41504;53.162;6.788;2023-02-20T05:11:40;27.45;;;14.45;;
55633;SDS011;41504;53.162;6.788;2023-02-20T05:14:06;28.52;;;15.00;;
55633;SDS011;41504;53.162;6.788;2023-02-20T05:16:32;28.45;;;14.07;;
55633;SDS011;41504;53.162;6.788;2023-02-20T05:19:01;29.92;;;14.10;;
55633;SDS011;41504;53.162;6.788;2023-02-20T05:21:27;31.38;;;13.90;;
55633;SDS011;41504;53.162;6.788;2023-02-20T05:24:11;26.95;;;14.13;;
55633;SDS011;41504;53.162;6.788;2023-02-20T05:26:37;25.85;;;14.70;;
55633;SDS011;41504;53.162;6.788;2023-02-20T05:29:03;26.50;;;14.60;;
55633;SDS011;41504;53.162;6.788;2023-02-20T05:31:29;25.30;;;14.32;;
55633;SDS011;41504;53.162;6.788;2023-02-20T05:33:55;24.83;;;13.38;;
55633;SDS011;41504;53.162;6.788;2023-02-20T05:36:20;24.73;;;13.88;;
55633;SDS011;41504;53.162;6.788;2023-02-20T05:38:49;28.75;;;13.57;;
55633;SDS011;41504;53.162;6.788;2023-02-20T05:41:15;28.65;;;13.55;;
55633;SDS011;41504;53.162;6.788;2023-02-20T05:43:42;32.08;;;14.60;;
55633;SDS011;41504;53.162;6.788;2023-02-20T05:46:07;33.13;;;15.27;;
55633;SDS011;41504;53.162;6.788;2023-02-20T05:48:33;27.42;;;14.43;;
55633;SDS011;41504;53.162;6.788;2023-02-20T05:50:59;26.92;;;14.50;;
55633;SDS011;41504;53.162;6.788;2023-02-20T05:53:31;31.52;;;15.20;;
55633;SDS011;41504;53.162;6.788;2023-02-20T05:55:57;26.38;;;13.90;;
55633;SDS011;41504;53.162;6.788;2023-02-20T05:58:23;27.52;;;15.35;;
55633;SDS011;41504;53.162;6.788;2023-02-20T06:00:49;28.45;;;13.90;;
55633;SDS011;41504;53.162;6.788;2023-02-20T06:03:15;31.48;;;14.65;;
55633;SDS011;41504;53.162;6.788;2023-02-20T06:05:44;30.27;;;14.13;;
55633;SDS011;41504;53.162;6.788;2023-02-20T06:08:10;28.13;;;14.40;;
55633;SDS011;41504;53.162;6.788;2023-02-20T06:10:36;25.17;;;13.82;;
55633;SDS011;41504;53.162;6.788;2023-02-20T06:13:02;25.20;;;14.05;;
55633;SDS011;41504;53.162;6.788;2023-02-20T06:15:27;26.98;;;13.13;;
55633;SDS011;41504;53.162;6.788;2023-02-20T06:17:53;30.75;;;13.32;;
55633;SDS011;41504;53.162;6.788;2023-02-20T06:20:19;29.52;;;12.32;;
55633;SDS011;41504;53.162;6.788;2023-02-20T06:22:48;28.02;;;12.95;;
55633;SDS011;41504;53.162;6.788;2023-02-20T06:25:13;24.35;;;11.98;;
55633;SDS011;41504;53.162;6.788;2023-02-20T06:27:45;23.63;;;11.48;;
55633;SDS011;41504;53.162;6.788;2023-02-20T06:30:17;25.05;;;12.43;;
55633;SDS011;41504;53.162;6.788;2023-02-20T06:32:45;22.27;;;12.10;;
55633;SDS011;41504;53.162;6.788;2023-02-20T06:35:11;24.65;;;12.02;;
55633;SDS011;41504;53.162;6.788;2023-02-20T06:37:37;22.92;;;12.45;;
55633;SDS011;41504;53.162;6.788;2023-02-20T06:40:03;21.88;;;11.65;;
55633;SDS011;41504;53.162;6.788;2023-02-20T06:42:29;21.45;;;11.05;;
55633;SDS011;41504;53.162;6.788;2023-02-20T06:44:55;21.45;;;11.05;;
55633;SDS011;41504;53.162;6.788;2023-02-20T06:47:21;21.75;;;11.90;;
55633;SDS011;41504;53.162;6.788;2023-02-20T06:49:46;21.67;;;11.23;;
55633;SDS011;41504;53.162;6.788;2023-02-20T06:52:12;22.95;;;11.15;;
55633;SDS011;41504;53.162;6.788;2023-02-20T06:54:38;24.33;;;11.52;;
55633;SDS011;41504;53.162;6.788;2023-02-20T06:57:04;21.77;;;11.13;;
55633;SDS011;41504;53.162;6.788;2023-02-20T06:59:30;24.23;;;11.30;;
55633;SDS011;41504;53.162;6.788;2023-02-20T07:02:03;24.85;;;11.50;;
55633;SDS011;41504;53.162;6.788;2023-02-20T07:04:29;22.25;;;10.98;;
55633;SDS011;41504;53.162;6.788;2023-02-20T07:06:55;28.10;;;12.73;;
55633;SDS011;41504;53.162;6.788;2023-02-20T07:09:21;23.23;;;10.93;;
55633;SDS011;41504;53.162;6.788;2023-02-20T07:11:47;24.90;;;10.70;;
55633;SDS011;41504;53.162;6.788;2023-02-20T07:14:14;23.98;;;11.18;;
55633;SDS011;41504;53.162;6.788;2023-02-20T07:16:40;24.40;;;11.38;;
55633;SDS011;41504;53.162;6.788;2023-02-20T07:19:06;21.02;;;10.52;;
55633;SDS011;41504;53.162;6.788;2023-02-20T07:21:31;20.80;;;10.95;;
55633;SDS011;41504;53.162;6.788;2023-02-20T07:23:57;23.73;;;10.80;;
55633;SDS011;41504;53.162;6.788;2023-02-20T07:26:24;22.55;;;11.77;;
55633;SDS011;41504;53.162;6.788;2023-02-20T07:28:53;22.67;;;10.82;;
55633;SDS011;41504;53.162;6.788;2023-02-20T07:31:22;23.20;;;10.52;;
55633;SDS011;41504;53.162;6.788;2023-02-20T07:33:48;24.15;;;11.02;;
55633;SDS011;41504;53.162;6.788;2023-02-20T07:36:14;22.38;;;10.93;;
55633;SDS011;41504;53.162;6.788;2023-02-20T07:38:40;25.17;;;10.27;;
55633;SDS011;41504;53.162;6.788;2023-02-20T07:41:06;17.50;;;9.55;;
55633;SDS011;41504;53.162;6.788;2023-02-20T07:43:33;20.48;;;9.40;;
55633;SDS011;41504;53.162;6.788;2023-02-20T07:45:58;19.13;;;9.40;;
55633;SDS011;41504;53.162;6.788;2023-02-20T07:48:24;24.55;;;10.23;;
55633;SDS011;41504;53.162;6.788;2023-02-20T07:50:50;22.05;;;9.35;;
55633;SDS011;41504;53.162;6.788;2023-02-20T07:53:17;18.55;;;9.32;;
55633;SDS011;41504;53.162;6.788;2023-02-20T07:55:44;18.67;;;8.80;;
55633;SDS011;41504;53.162;6.788;2023-02-20T07:58:10;19.98;;;8.50;;
55633;SDS011;41504;53.162;6.788;2023-02-20T08:00:36;18.33;;;8.25;;
55633;SDS011;41504;53.162;6.788;2023-02-20T08:03:02;17.85;;;7.88;;
55633;SDS011;41504;53.162;6.788;2023-02-20T08:05:28;17.63;;;8.15;;
55633;SDS011;41504;53.162;6.788;2023-02-20T08:07:54;19.13;;;8.65;;
55633;SDS011;41504;53.162;6.788;2023-02-20T08:10:21;19.92;;;8.50;;
55633;SDS011;41504;53.162;6.788;2023-02-20T08:12:51;19.10;;;8.98;;
55633;SDS011;41504;53.162;6.788;2023-02-20T08:15:18;17.48;;;7.78;;
55633;SDS011;41504;53.162;6.788;2023-02-20T08:17:44;20.40;;;7.80;;
55633;SDS011;41504;53.162;6.788;2023-02-20T08:20:11;17.20;;;7.60;;
55633;SDS011;41504;53.162;6.788;2023-02-20T08:22:38;15.13;;;7.43;;
55633;SDS011;41504;53.162;6.788;2023-02-20T08:25:04;17.02;;;7.20;;
55633;SDS011;41504;53.162;6.788;2023-02-20T08:27:30;18.83;;;7.25;;
55633;SDS011;41504;53.162;6.788;2023-02-20T08:29:57;17.63;;;6.80;;
55633;SDS011;41504;53.162;6.788;2023-02-20T08:32:23;13.77;;;6.40;;
55633;SDS011;41504;53.162;6.788;2023-02-20T08:34:49;15.40;;;7.43;;
55633;SDS011;41504;53.162;6.788;2023-02-20T08:37:15;17.77;;;6.22;;
55633;SDS011;41504;53.162;6.788;2023-02-20T08:39:41;14.30;;;6.88;;
55633;SDS011;41504;53.162;6.788;2023-02-20T08:42:06;16.10;;;7.18;;
55633;SDS011;41504;53.162;6.788;2023-02-20T08:44:32;15.00;;;7.00;;
55633;SDS011;41504;53.162;6.788;2023-02-20T08:46:58;16.02;;;6.63;;
55633;SDS011;41504;53.162;6.788;2023-02-20T08:49:23;14.45;;;6.28;;
55633;SDS011;41504;53.162;6.788;2023-02-20T08:51:51;17.17;;;6.60;;
55633;SDS011;41504;53.162;6.788;2023-02-20T08:54:19;15.77;;;7.07;;
55633;SDS011;41504;53.162;6.788;2023-02-20T08:56:46;19.05;;;7.50;;
55633;SDS011;41504;53.162;6.788;2023-02-20T08:59:12;13.85;;;6.75;;
55633;SDS011;41504;53.162;6.788;2023-02-20T09:01:41;18.63;;;6.75;;
55633;SDS011;41504;53.162;6.788;2023-02-20T09:04:08;16.25;;;7.13;;
55633;SDS011;41504;53.162;6.788;2023-02-20T09:06:37;17.15;;;6.75;;
55633;SDS011;41504;53.162;6.788;2023-02-20T09:09:03;16.48;;;6.95;;
55633;SDS011;41504;53.162;6.788;2023-02-20T09:11:29;13.80;;;6.43;;
55633;SDS011;41504;53.162;6.788;2023-02-20T09:13:54;13.18;;;6.53;;
55633;SDS011;41504;53.162;6.788;2023-02-20T09:16:22;17.73;;;6.30;;
55633;SDS011;41504;53.162;6.788;2023-02-20T09:18:48;13.48;;;6.18;;
55633;SDS011;41504;53.162;6.788;2023-02-20T09:21:15;10.95;;;6.32;;
55633;SDS011;41504;53.162;6.788;2023-02-20T09:23:43;14.73;;;5.85;;
55633;SDS011;41504;53.162;6.788;2023-02-20T09:26:09;13.85;;;6.10;;
55633;SDS011;41504;53.162;6.788;2023-02-20T09:28:35;14.25;;;5.68;;
55633;SDS011;41504;53.162;6.788;2023-02-20T09:31:01;14.13;;;6.10;;
55633;SDS011;41504;53.162;6.788;2023-02-20T09:33:27;15.02;;;5.88;;
55633;SDS011;41504;53.162;6.788;2023-02-20T09:35:53;15.63;;;6.72;;
55633;SDS011;41504;53.162;6.788;2023-02-20T09:38:23;15.85;;;5.78;;
55633;SDS011;41504;53.162;6.788;2023-02-20T09:40:52;17.25;;;6.72;;
55633;SDS011;41504;53.162;6.788;2023-02-20T09:48:38;13.60;;;5.70;;
55633;SDS011;41504;53.162;6.788;2023-02-20T09:51:17;12.93;;;5.20;;
55633;SDS011;41504;53.162;6.788;2023-02-20T09:53:57;13.05;;;5.70;;
55633;SDS011;41504;53.162;6.788;2023-02-20T09:56:53;13.35;;;6.00;;
55633;SDS011;41504;53.162;6.788;2023-02-20T09:59:38;15.02;;;6.10;;
55633;SDS011;41504;53.162;6.788;2023-02-20T10:09:57;12.95;;;6.05;;
55633;SDS011;41504;53.162;6.788;2023-02-20T10:23:20;15.73;;;6.35;;
55633;SDS011;41504;53.162;6.788;2023-02-20T10:26:02;14.82;;;5.93;;
55633;SDS011;41504;53.162;6.788;2023-02-20T10:28:32;12.02;;;6.68;;
55633;SDS011;41504;53.162;6.788;2023-02-20T10:33:37;15.18;;;6.15;;
55633;SDS011;41504;53.162;6.788;2023-02-20T10:36:26;14.60;;;6.45;;
55633;SDS011;41504;53.162;6.788;2023-02-20T10:39:04;14.88;;;6.43;;
55633;SDS011;41504;53.162;6.788;2023-02-20T10:50:16;13.85;;;5.82;;
55633;SDS011;41504;53.162;6.788;2023-02-20T10:52:34;12.85;;;6.13;;
55633;SDS011;41504;53.162;6.788;2023-02-20T11:00:26;13.45;;;6.10;;
55633;SDS011;41504;53.162;6.788;2023-02-20T11:02:59;14.00;;;6.03;;
55633;SDS011;41504;53.162;6.788;2023-02-20T11:05:33;13.25;;;6.00;;
55633;SDS011;41504;53.162;6.788;2023-02-20T11:08:04;13.55;;;5.90;;
55633;SDS011;41504;53.162;6.788;2023-02-20T11:10:31;13.57;;;6.10;;
55633;SDS011;41504;53.162;6.788;2023-02-20T11:12:59;16.95;;;5.95;;
55633;SDS011;41504;53.162;6.788;2023-02-20T11:15:30;12.68;;;5.68;;
55633;SDS011;41504;53.162;6.788;2023-02-20T11:17:58;15.38;;;6.10;;
55633;SDS011;41504;53.162;6.788;2023-02-20T11:22:56;14.00;;;6.20;;
55633;SDS011;41504;53.162;6.788;2023-02-20T11:25:33;10.88;;;4.97;;
55633;SDS011;41504;53.162;6.788;2023-02-20T11:30:56;10.88;;;5.80;;
55633;SDS011;41504;53.162;6.788;2023-02-20T11:33:26;13.65;;;5.78;;
55633;SDS011;41504;53.162;6.788;2023-02-20T11:35:57;11.07;;;5.30;;
55633;SDS011;41504;53.162;6.788;2023-02-20T11:38:36;12.88;;;5.22;;
55633;SDS011;41504;53.162;6.788;2023-02-20T11:41:05;11.40;;;5.55;;
55633;SDS011;41504;53.162;6.788;2023-02-20T11:43:38;12.13;;;5.78;;
55633;SDS011;41504;53.162;6.788;2023-02-20T11:46:18;12.98;;;5.28;;
55633;SDS011;41504;53.162;6.788;2023-02-20T11:49:10;10.98;;;4.55;;
55633;SDS011;41504;53.162;6.788;2023-02-20T11:52:05;12.15;;;5.35;;
55633;SDS011;41504;53.162;6.788;2023-02-20T11:54:37;10.23;;;5.15;;
55633;SDS011;41504;53.162;6.788;2023-02-20T11:59:50;14.45;;;5.85;;
55633;SDS011;41504;53.162;6.788;2023-02-20T12:02:31;15.32;;;5.07;;
55633;SDS011;41504;53.162;6.788;2023-02-20T12:05:08;14.98;;;5.80;;
55633;SDS011;41504;53.162;6.788;2023-02-20T12:07:37;15.13;;;5.50;;
55633;SDS011;41504;53.162;6.788;2023-02-20T12:10:19;14.75;;;5.10;;
55633;SDS011;41504;53.162;6.788;2023-02-20T12:13:05;10.35;;;5.22;;
55633;SDS011;41504;53.162;6.788;2023-02-20T12:15:34;11.93;;;5.50;;
55633;SDS011;41504;53.162;6.788;2023-02-20T12:18:13;12.40;;;5.55;;
55633;SDS011;41504;53.162;6.788;2023-02-20T12:23:35;11.27;;;4.85;;
55633;SDS011;41504;53.162;6.788;2023-02-20T12:26:27;12.15;;;5.15;;
55633;SDS011;41504;53.162;6.788;2023-02-20T12:31:45;14.77;;;6.10;;
55633;SDS011;41504;53.162;6.788;2023-02-20T12:43:15;16.05;;;5.35;;
55633;SDS011;41504;53.162;6.788;2023-02-20T12:46:00;12.88;;;5.18;;
55633;SDS011;41504;53.162;6.788;2023-02-20T12:48:42;12.25;;;5.07;;
55633;SDS011;41504;53.162;6.788;2023-02-20T12:51:52;14.65;;;4.93;;
55633;SDS011;41504;53.162;6.788;2023-02-20T12:56:53;14.60;;;5.18;;
55633;SDS011;41504;53.162;6.788;2023-02-20T12:59:30;12.80;;;4.70;;
55633;SDS011;41504;53.162;6.788;2023-02-20T13:02:23;16.88;;;4.95;;
55633;SDS011;41504;53.162;6.788;2023-02-20T13:05:00;13.95;;;5.15;;
55633;SDS011;41504;53.162;6.788;2023-02-20T13:07:34;11.80;;;4.68;;
55633;SDS011;41504;53.162;6.788;2023-02-20T13:10:05;14.60;;;5.38;;
55633;SDS011;41504;53.162;6.788;2023-02-20T13:12:38;14.52;;;5.13;;
55633;SDS011;41504;53.162;6.788;2023-02-20T13:20:56;12.70;;;4.60;;
55633;SDS011;41504;53.162;6.788;2023-02-20T13:23:45;14.68;;;5.28;;
55633;SDS011;41504;53.162;6.788;2023-02-20T13:29:14;13.82;;;4.93;;
55633;SDS011;41504;53.162;6.788;2023-02-20T13:31:44;15.82;;;5.18;;
55633;SDS011;41504;53.162;6.788;2023-02-20T13:36:42;14.00;;;4.97;;
55633;SDS011;41504;53.162;6.788;2023-02-20T13:42:30;14.43;;;4.45;;
55633;SDS011;41504;53.162;6.788;2023-02-20T13:44:54;13.85;;;5.07;;
55633;SDS011;41504;53.162;6.788;2023-02-20T13:52:29;12.45;;;5.38;;
55633;SDS011;41504;53.162;6.788;2023-02-20T13:57:42;11.95;;;5.00;;
55633;SDS011;41504;53.162;6.788;2023-02-20T14:02:55;14.13;;;4.78;;
55633;SDS011;41504;53.162;6.788;2023-02-20T14:05:22;13.23;;;4.75;;
55633;SDS011;41504;53.162;6.788;2023-02-20T14:07:53;12.27;;;4.53;;
55633;SDS011;41504;53.162;6.788;2023-02-20T14:10:44;14.70;;;5.25;;
55633;SDS011;41504;53.162;6.788;2023-02-20T14:13:20;13.55;;;5.05;;
55633;SDS011;41504;53.162;6.788;2023-02-20T14:18:18;13.68;;;5.22;;
55633;SDS011;41504;53.162;6.788;2023-02-20T14:20:48;11.13;;;4.88;;
55633;SDS011;41504;53.162;6.788;2023-02-20T14:23:35;11.93;;;4.60;;
55633;SDS011;41504;53.162;6.788;2023-02-20T14:26:03;14.00;;;5.10;;
55633;SDS011;41504;53.162;6.788;2023-02-20T14:28:30;14.82;;;5.20;;
55633;SDS011;41504;53.162;6.788;2023-02-20T14:31:03;13.15;;;4.70;;
55633;SDS011;41504;53.162;6.788;2023-02-20T14:33:44;11.75;;;5.07;;
55633;SDS011;41504;53.162;6.788;2023-02-20T14:41:49;11.73;;;5.10;;
55633;SDS011;41504;53.162;6.788;2023-02-20T14:44:23;13.60;;;5.10;;
55633;SDS011;41504;53.162;6.788;2023-02-20T14:46:50;13.77;;;4.72;;
55633;SDS011;41504;53.162;6.788;2023-02-20T14:49:25;12.35;;;5.20;;
55633;SDS011;41504;53.162;6.788;2023-02-20T14:52:15;12.43;;;5.18;;
55633;SDS011;41504;53.162;6.788;2023-02-20T14:54:57;12.38;;;4.90;;
55633;SDS011;41504;53.162;6.788;2023-02-20T14:57:27;16.10;;;5.43;;
55633;SDS011;41504;53.162;6.788;2023-02-20T15:00:07;13.88;;;5.22;;
55633;SDS011;41504;53.162;6.788;2023-02-20T15:02:35;16.85;;;5.38;;
55633;SDS011;41504;53.162;6.788;2023-02-20T15:05:01;13.18;;;5.10;;
55633;SDS011;41504;53.162;6.788;2023-02-20T15:07:32;11.93;;;4.78;;
55633;SDS011;41504;53.162;6.788;2023-02-20T15:10:03;13.02;;;5.15;;
55633;SDS011;41504;53.162;6.788;2023-02-20T15:12:33;15.63;;;5.32;;
55633;SDS011;41504;53.162;6.788;2023-02-20T15:15:12;12.98;;;5.10;;
55633;SDS011;41504;53.162;6.788;2023-02-20T15:17:40;13.55;;;5.15;;
55633;SDS011;41504;53.162;6.788;2023-02-20T15:20:19;11.88;;;4.70;;
55633;SDS011;41504;53.162;6.788;2023-02-20T15:25:40;12.48;;;4.93;;
55633;SDS011;41504;53.162;6.788;2023-02-20T15:33:27;9.32;;;4.10;;
55633;SDS011;41504;53.162;6.788;2023-02-20T15:35:55;11.95;;;4.60;;
55633;SDS011;41504;53.162;6.788;2023-02-20T15:38:21;13.85;;;5.05;;
55633;SDS011;41504;53.162;6.788;2023-02-20T15:40:48;11.35;;;4.63;;
55633;SDS011;41504;53.162;6.788;2023-02-20T15:43:14;13.18;;;5.03;;
55633;SDS011;41504;53.162;6.788;2023-02-20T15:45:40;10.93;;;4.38;;
55633;SDS011;41504;53.162;6.788;2023-02-20T15:48:06;11.48;;;4.57;;
55633;SDS011;41504;53.162;6.788;2023-02-20T15:50:33;10.82;;;4.60;;
55633;SDS011;41504;53.162;6.788;2023-02-20T15:53:01;14.07;;;4.68;;
55633;SDS011;41504;53.162;6.788;2023-02-20T15:55:33;10.13;;;4.60;;
55633;SDS011;41504;53.162;6.788;2023-02-20T15:58:00;13.50;;;4.97;;
55633;SDS011;41504;53.162;6.788;2023-02-20T16:00:27;13.02;;;5.50;;
55633;SDS011;41504;53.162;6.788;2023-02-20T16:02:57;10.32;;;4.53;;
55633;SDS011;41504;53.162;6.788;2023-02-20T16:05:24;11.57;;;5.05;;
55633;SDS011;41504;53.162;6.788;2023-02-20T16:07:51;16.23;;;5.32;;
55633;SDS011;41504;53.162;6.788;2023-02-20T16:10:17;13.88;;;5.10;;
55633;SDS011;41504;53.162;6.788;2023-02-20T16:12:49;16.27;;;5.00;;
55633;SDS011;41504;53.162;6.788;2023-02-20T16:15:19;12.55;;;4.82;;
55633;SDS011;41504;53.162;6.788;2023-02-20T16:17:49;13.05;;;5.18;;
55633;SDS011;41504;53.162;6.788;2023-02-20T16:20:23;13.88;;;5.60;;
55633;SDS011;41504;53.162;6.788;2023-02-20T16:22:50;13.85;;;5.00;;
55633;SDS011;41504;53.162;6.788;2023-02-20T16:25:17;14.63;;;5.38;;
55633;SDS011;41504;53.162;6.788;2023-02-20T16:27:45;14.02;;;5.05;;
55633;SDS011;41504;53.162;6.788;2023-02-20T16:30:21;13.50;;;4.68;;
55633;SDS011;41504;53.162;6.788;2023-02-20T16:32:51;11.60;;;4.88;;
55633;SDS011;41504;53.162;6.788;2023-02-20T16:35:18;13.88;;;4.72;;
55633;SDS011;41504;53.162;6.788;2023-02-20T16:37:44;12.80;;;4.70;;
55633;SDS011;41504;53.162;6.788;2023-02-20T16:40:11;12.38;;;4.97;;
55633;SDS011;41504;53.162;6.788;2023-02-20T16:42:40;13.38;;;4.75;;
55633;SDS011;41504;53.162;6.788;2023-02-20T16:45:11;17.15;;;7.00;;
55633;SDS011;41504;53.162;6.788;2023-02-20T16:47:37;15.18;;;6.85;;
55633;SDS011;41504;53.162;6.788;2023-02-20T16:50:04;17.08;;;5.38;;
55633;SDS011;41504;53.162;6.788;2023-02-20T16:52:34;10.80;;;4.90;;
55633;SDS011;41504;53.162;6.788;2023-02-20T16:55:02;12.77;;;5.07;;
55633;SDS011;41504;53.162;6.788;2023-02-20T16:57:31;13.75;;;5.35;;
55633;SDS011;41504;53.162;6.788;2023-02-20T16:59:57;15.20;;;5.70;;
55633;SDS011;41504;53.162;6.788;2023-02-20T17:02:29;13.52;;;6.03;;
55633;SDS011;41504;53.162;6.788;2023-02-20T17:04:56;15.68;;;5.95;;
55633;SDS011;41504;53.162;6.788;2023-02-20T17:07:23;13.35;;;5.40;;
55633;SDS011;41504;53.162;6.788;2023-02-20T17:09:49;15.95;;;6.38;;
55633;SDS011;41504;53.162;6.788;2023-02-20T17:12:17;15.32;;;5.70;;